createdAt,value
2022-08-09T00:02:29.168Z,99106.06
2022-08-09T00:07:31.169Z,99108.88
2022-08-09T00:12:46.907Z,99114.81
2022-08-09T00:18:07.477Z,99119.16
2022-08-09T00:23:57.236Z,99114.44
2022-08-09T00:28:35.947Z,99120.34
2022-08-09T00:33:51.036Z,99117.25
2022-08-09T00:38:54.271Z,99115.28
2022-08-09T00:44:19.576Z,99119.66
2022-08-09T00:49:18.266Z,99117.31
2022-08-09T00:54:31.580Z,99108.28
2022-08-09T00:59:41.512Z,99118.09
2022-08-09T01:05:13.700Z,99111.41
2022-08-09T01:10:41.806Z,99113.00
2022-08-09T01:15:51.994Z,99115.34
2022-08-09T01:21:10.038Z,99118.50
2022-08-09T01:26:46.254Z,99119.25
2022-08-09T01:32:30.873Z,99113.75
2022-08-09T01:37:16.769Z,99120.06
2022-08-09T01:42:33.517Z,99126.34
2022-08-09T01:47:44.902Z,99118.88
2022-08-09T01:52:48.153Z,99120.06
2022-08-09T01:57:55.931Z,99125.16
2022-08-09T02:02:59.246Z,99131.03
2022-08-09T02:08:40.186Z,99132.59
2022-08-09T02:13:37.709Z,99132.94
2022-08-09T02:18:47.724Z,99141.53
2022-08-09T02:23:54.977Z,99135.25
2022-08-09T02:29:02.293Z,99143.50
2022-08-09T02:34:13.675Z,99137.22
2022-08-09T02:39:54.969Z,99137.94
2022-08-09T02:45:03.859Z,99139.44
2022-08-09T02:50:13.489Z,99139.41
2022-08-09T02:55:20.736Z,99146.00
2022-08-09T03:00:26.112Z,99149.47
2022-08-09T03:05:34.531Z,99150.56
2022-08-09T03:10:38.614Z,99138.34
2022-08-09T03:16:06.650Z,99138.78
2022-08-09T03:21:06.580Z,99146.94
2022-08-09T03:26:08.690Z,99146.16
2022-08-09T03:31:21.238Z,99151.25
2022-08-09T03:36:27.688Z,99151.19
2022-08-09T03:41:45.854Z,99150.34
2022-08-09T03:46:51.010Z,99153.00
2022-08-09T03:52:00.349Z,99150.66
2022-08-09T03:57:17.933Z,99152.63
2022-08-09T04:02:26.892Z,99149.88
2022-08-09T04:07:33.699Z,99157.75
2022-08-09T04:12:53.643Z,99161.69
2022-08-09T04:17:57.754Z,99160.19
2022-08-09T04:22:59.973Z,99163.00
2022-08-09T04:28:03.624Z,99167.81
2022-08-09T04:33:05.802Z,99177.69
2022-08-09T04:38:10.545Z,99175.03
2022-08-09T04:43:12.548Z,99181.78
2022-08-09T04:48:16.041Z,99174.78
2022-08-09T04:53:18.089Z,99184.28
2022-08-09T04:58:20.031Z,99184.00
2022-08-09T05:03:40.435Z,99189.56
2022-08-09T05:08:47.782Z,99186.06
2022-08-09T05:13:50.046Z,99195.13
2022-08-09T05:18:59.108Z,99205.34
2022-08-09T05:24:03.738Z,99208.13
2022-08-09T05:29:06.098Z,99213.66
2022-08-09T05:34:07.974Z,99220.34
2022-08-09T05:39:28.268Z,99215.22
2022-08-09T05:44:34.610Z,99213.66
2022-08-09T05:50:26.004Z,99223.06
2022-08-09T05:55:03.257Z,99231.69
2022-08-09T06:00:10.018Z,99231.22
2022-08-09T06:05:16.295Z,99233.50
2022-08-09T06:10:18.544Z,99233.75
2022-08-09T06:15:21.349Z,99238.38
2022-08-09T06:20:23.465Z,99237.38
2022-08-09T06:25:26.466Z,99240.31
2022-08-09T06:30:29.183Z,99243.28
2022-08-09T06:35:56.498Z,99241.00
2022-08-09T06:40:55.051Z,99244.94
2022-08-09T06:46:06.593Z,99242.47
2022-08-09T06:51:12.910Z,99244.00
2022-08-09T06:56:16.795Z,99248.94
2022-08-09T07:01:24.008Z,99249.19
2022-08-09T07:06:29.612Z,99245.66
2022-08-09T07:11:34.196Z,99257.13
2022-08-09T07:16:55.319Z,99257.19
2022-08-09T07:22:00.036Z,99261.75
2022-08-09T07:27:02.390Z,99263.34
2022-08-09T07:32:05.253Z,99275.06
2022-08-09T07:37:15.639Z,99278.81
2022-08-09T07:42:18.015Z,99275.50
2022-08-09T07:47:21.036Z,99266.41
2022-08-09T07:52:24.211Z,99279.22
2022-08-09T07:57:35.861Z,99280.91
2022-08-09T08:02:42.621Z,99279.69
2022-08-09T08:09:01.456Z,99271.66
2022-08-09T08:13:06.877Z,99274.03
2022-08-09T08:18:14.511Z,99264.31
2022-08-09T08:23:18.811Z,99258.81
2022-08-09T08:28:32.190Z,99260.81
2022-08-09T08:33:40.615Z,99263.28
2022-08-09T08:38:54.291Z,99268.41
2022-08-09T08:44:02.546Z,99257.28
2022-08-09T08:49:07.837Z,99263.94
2022-08-09T08:54:20.172Z,99263.47
2022-08-09T08:59:23.049Z,99259.84
2022-08-09T09:04:37.792Z,99256.69
2022-08-09T09:10:01.769Z,99258.03
2022-08-09T09:15:07.264Z,99268.56
2022-08-09T09:20:15.514Z,99256.03
2022-08-09T09:26:00.985Z,99246.50
2022-08-09T09:31:06.135Z,99248.84
2022-08-09T09:36:20.352Z,99257.19
2022-08-09T09:41:33.403Z,99254.75
2022-08-09T09:46:52.472Z,99257.50
2022-08-09T09:52:16.649Z,99242.25
2022-08-09T09:58:02.901Z,99247.34
2022-08-09T10:02:56.123Z,99249.84
2022-08-09T10:08:26.100Z,99237.13
2022-08-09T10:13:43.344Z,99233.38
2022-08-09T10:18:56.170Z,99234.13
2022-08-09T10:24:04.654Z,99235.19
2022-08-09T10:29:36.099Z,99242.88
2022-08-09T10:34:32.785Z,99229.94
2022-08-09T10:39:40.979Z,99223.81
2022-08-09T10:44:59.559Z,99227.56
2022-08-09T10:50:52.276Z,99223.63
2022-08-09T10:56:22.608Z,99234.22
2022-08-09T11:03:15.571Z,99225.63
2022-08-09T11:07:00.167Z,99223.84
2022-08-09T11:12:12.448Z,99228.44
2022-08-09T11:17:14.447Z,99235.59
2022-08-09T11:22:24.551Z,99221.34
2022-08-09T11:28:03.943Z,99222.97
2022-08-09T11:33:26.164Z,99213.53
2022-08-09T11:38:33.137Z,99218.78
2022-08-09T11:43:37.434Z,99213.91
2022-08-09T11:48:52.381Z,99205.25
2022-08-09T11:54:27.606Z,99208.63
2022-08-09T11:59:35.893Z,99212.09
2022-08-09T12:04:40.630Z,99199.34
2022-08-09T12:09:50.561Z,99194.97
2022-08-09T12:15:07.255Z,99200.75
2022-08-09T12:20:22.190Z,99186.25
2022-08-09T12:25:31.991Z,99193.25
2022-08-09T12:30:40.056Z,99196.31
2022-08-09T12:35:42.959Z,99194.63
2022-08-09T12:40:51.870Z,99188.44
2022-08-09T12:46:00.165Z,99181.00
2022-08-09T12:51:03.655Z,99179.75
2022-08-09T12:56:39.582Z,99176.59
2022-08-09T13:01:49.044Z,99171.97
2022-08-09T13:06:51.793Z,99161.72
2022-08-09T13:12:03.216Z,99165.59
2022-08-09T13:17:13.718Z,99174.16
2022-08-09T13:22:38.124Z,99167.00
2022-08-09T13:27:55.303Z,99174.75
2022-08-09T13:32:58.339Z,99177.50
2022-08-09T13:38:03.402Z,99185.28
2022-08-09T13:43:09.519Z,99181.25
2022-08-09T13:48:12.302Z,99177.97
2022-08-09T13:53:16.816Z,99175.69
2022-08-09T13:58:18.731Z,99159.53
2022-08-09T14:04:02.245Z,99173.69
2022-08-09T14:08:43.726Z,99177.91
2022-08-09T14:14:16.418Z,99179.09
2022-08-09T14:19:08.492Z,99173.22
2022-08-09T14:24:18.726Z,99166.38
2022-08-09T14:30:18.444Z,99179.75
2022-08-09T14:34:56.876Z,99183.47
2022-08-09T14:39:59.027Z,99177.56
2022-08-09T14:46:39.360Z,99162.78
2022-08-09T14:50:24.976Z,99174.78
2022-08-09T14:55:29.256Z,99175.06
2022-08-09T15:00:36.111Z,99161.69
2022-08-09T15:05:39.048Z,99154.25
2022-08-09T15:10:42.104Z,99139.94
2022-08-09T15:15:44.028Z,99146.34
2022-08-09T15:21:54.616Z,99139.31
2022-08-09T15:26:09.149Z,99150.50
2022-08-09T15:31:21.282Z,99148.03
2022-08-09T15:36:30.681Z,99143.69
2022-08-09T15:41:32.803Z,99148.50
2022-08-09T15:46:35.295Z,99133.91
2022-08-09T15:52:02.703Z,99135.91
2022-08-09T15:56:59.218Z,99144.91
2022-08-09T16:02:03.666Z,99138.69
2022-08-09T16:07:07.635Z,99143.66
2022-08-09T16:12:11.263Z,99136.81
2022-08-09T16:17:17.255Z,99133.09
2022-08-09T16:22:19.241Z,99137.13
2022-08-09T16:27:22.567Z,99134.28
2022-08-09T16:32:53.505Z,99134.88
2022-08-09T16:37:56.946Z,99129.28
2022-08-09T16:43:02.194Z,99130.19
2022-08-09T16:48:41.898Z,99124.91
2022-08-09T16:53:32.521Z,99139.22
2022-08-09T16:58:37.123Z,99128.81
2022-08-09T17:03:41.817Z,99135.19
2022-08-09T17:09:01.576Z,99128.50
2022-08-09T17:14:06.524Z,99134.22
2022-08-09T17:19:10.659Z,99132.97
2022-08-09T17:24:28.400Z,99130.88
2022-08-09T17:29:37.907Z,99144.28
2022-08-09T17:35:03.730Z,99139.53
2022-08-09T17:40:06.306Z,99131.69
2022-08-09T17:45:37.673Z,99133.19
2022-08-09T17:50:41.678Z,99144.94
2022-08-09T17:56:03.361Z,99139.47
2022-08-09T18:01:08.515Z,99139.56
2022-08-09T18:06:14.917Z,99137.34
2022-08-09T18:11:46.856Z,99130.81
2022-08-09T18:16:57.676Z,99141.44
2022-08-09T18:21:59.667Z,99140.28
2022-08-09T18:27:03.764Z,99152.25
2022-08-09T18:32:09.249Z,99139.13
2022-08-09T18:37:48.119Z,99159.31
2022-08-09T18:42:33.438Z,99165.88
2022-08-09T18:47:37.627Z,99173.25
2022-08-09T18:52:39.929Z,99181.50
2022-08-09T18:57:45.395Z,99180.50
2022-08-09T19:02:50.945Z,99175.47
2022-08-09T19:08:04.813Z,99189.66
2022-08-09T19:13:20.448Z,99197.34
2022-08-09T19:18:33.690Z,99205.13
2022-08-09T19:24:32.392Z,99194.50
2022-08-09T19:29:09.500Z,99204.19
2022-08-09T19:34:22.992Z,99203.94
2022-08-09T19:39:43.208Z,99199.00
2022-08-09T19:44:51.237Z,99212.31
2022-08-09T19:50:07.638Z,99215.75
2022-08-09T19:55:15.529Z,99214.94
2022-08-09T20:00:17.808Z,99219.06
2022-08-09T20:05:20.100Z,99218.34
2022-08-09T20:10:33.947Z,99226.56
2022-08-09T20:16:35.773Z,99228.03
2022-08-09T20:21:02.061Z,99229.06
2022-08-09T20:26:04.265Z,99228.31
2022-08-09T20:31:09.174Z,99227.56
2022-08-09T20:36:12.515Z,99223.88
2022-08-09T20:41:14.767Z,99235.16
2022-08-09T20:46:41.773Z,99225.03
2022-08-09T20:51:41.331Z,99222.41
2022-08-09T20:56:47.283Z,99218.41
2022-08-09T21:01:53.489Z,99226.72
2022-08-09T21:06:55.676Z,99220.19
2022-08-09T21:18:21.220Z,99221.41
2022-08-09T21:22:38.092Z,99228.59
2022-08-09T21:28:01.490Z,99226.28
2022-08-09T21:33:03.590Z,99234.00
2022-08-09T21:38:09.482Z,99233.63
2022-08-09T21:43:12.089Z,99238.44
2022-08-09T21:48:23.487Z,99240.84
2022-08-09T21:53:41.008Z,99249.56
2022-08-09T21:58:43.419Z,99252.13
2022-08-09T22:03:48.432Z,99252.81
2022-08-09T22:09:01.653Z,99249.38
2022-08-09T22:14:03.631Z,99246.50
2022-08-09T22:19:57.755Z,99256.41
2022-08-09T22:24:27.451Z,99254.00
2022-08-09T22:29:46.206Z,99256.16
2022-08-09T22:34:54.406Z,99242.19
2022-08-09T22:40:06.008Z,99248.66
2022-08-09T22:48:15.223Z,99247.97
2022-08-09T22:50:32.799Z,99255.94
2022-08-09T22:56:06.395Z,99263.50
2022-08-09T23:00:56.627Z,99264.78
2022-08-09T23:05:59.464Z,99266.78
2022-08-09T23:11:01.912Z,99268.94
2022-08-09T23:16:03.959Z,99261.25
2022-08-09T23:21:06.472Z,99258.84
2022-08-09T23:26:09.318Z,99258.97
2022-08-09T23:31:11.491Z,99253.44
2022-08-09T23:36:13.360Z,99251.91
2022-08-09T23:41:28.271Z,99255.03
2022-08-09T23:46:31.918Z,99251.09
2022-08-09T23:51:33.772Z,99251.88
2022-08-09T23:56:52.269Z,99242.34
